Armonk, New York
Current Conditions -  °F | °C
As of 2:56 AM on Thursday 29 Jan 2015 (Local Time) from KHPN Reporting Station
Clear Clear  
Wind Chill: -16°   Ceiling: Unl
Heat Index: -8°   Visibility: 10mi
Dew Point: -19°   Wind: 13mph
Humidity: 43%   Direction: 340°NNW
Pressure: 30.26"   Gusts: NA
Location:  41.13°N, 73.71°W
Report Text: KHPN 290756Z 34011KT 10SM CLR M08/M19 A3026 RMK AO2 SLP258 T10831189
Loading
Personal Weather Stations






























Interactive Weather Map New forecast layout! Learn more

10-Day Weather Forecast

Advertisements
Track Severe Weather on mobile